Time;durP1;ratioP1;P1;durP2;ratioP2;P2;SDS_P1;SDS_P2;PMS_P1;PMS_P2;Temp;Humidity;BMP_temperature;BMP_pressure;BME280_temperature;BME280_humidity;BME280_pressure;Samples;Min_cycle;Max_cycle;Signal;HPM_P1;HPM_P2
2023/10/06 00:01:25;;;;;;;10.37;9.07;;;13.30;99.90;;;;;;4994472;28;20231;-53
2023/10/06 00:03:57;;;;;;;11.13;9.50;;;13.30;99.90;;;;;;4998244;28;20688;-60
2023/10/06 00:06:23;;;;;;;10.13;9.33;;;13.30;99.90;;;;;;5000020;28;20270;-56
2023/10/06 00:08:51;;;;;;;13.37;9.73;;;13.40;99.90;;;;;;4996351;28;20706;-53
2023/10/06 00:11:31;;;;;;;11.47;9.37;;;13.40;99.90;;;;;;4994645;28;20254;-52
2023/10/06 00:14:07;;;;;;;12.90;9.40;;;13.40;99.90;;;;;;4992582;28;20760;-53
2023/10/06 00:16:39;;;;;;;9.97;8.97;;;13.40;99.90;;;;;;4992215;28;20394;-53
2023/10/06 00:19:31;;;;;;;9.77;8.13;;;13.40;99.90;;;;;;4996572;28;20925;-53
2023/10/06 00:22:03;;;;;;;8.50;7.70;;;13.60;99.90;;;;;;4993067;28;20215;-53
2023/10/06 00:24:31;;;;;;;10.00;8.47;;;13.50;99.90;;;;;;4994049;28;20271;-53
2023/10/06 00:26:57;;;;;;;10.20;8.00;;;13.60;99.90;;;;;;4993843;28;20204;-53
2023/10/06 00:29:23;;;;;;;9.20;7.97;;;13.70;99.90;;;;;;4997397;28;20947;-53
2023/10/06 00:31:49;;;;;;;12.17;8.33;;;13.60;99.90;;;;;;4997709;28;20302;-53
2023/10/06 00:34:21;;;;;;;9.57;8.63;;;13.50;99.90;;;;;;4995873;28;20212;-53
2023/10/06 00:36:51;;;;;;;8.40;7.50;;;13.70;99.90;;;;;;4994606;28;20295;-53
2023/10/06 00:39:22;;;;;;;11.93;8.53;;;13.60;99.90;;;;;;4999160;28;20203;-53
2023/10/06 00:41:55;;;;;;;9.90;8.30;;;13.60;99.90;;;;;;4995060;28;20665;-53
2023/10/06 00:44:21;;;;;;;8.17;7.37;;;13.60;99.90;;;;;;4987294;28;20667;-53
2023/10/06 00:46:47;;;;;;;9.67;8.13;;;13.70;99.90;;;;;;5000107;28;20204;-54
2023/10/06 00:49:14;;;;;;;9.70;8.03;;;13.80;99.90;;;;;;4995272;28;20192;-53
2023/10/06 00:51:41;;;;;;;11.77;7.50;;;14.00;99.90;;;;;;4997287;28;20211;-53
2023/10/06 00:54:07;;;;;;;8.53;7.77;;;13.80;99.90;;;;;;4999973;28;20694;-53
2023/10/06 00:56:33;;;;;;;9.43;8.53;;;13.90;99.90;;;;;;4997663;28;20242;-53
2023/10/06 00:59:03;;;;;;;12.13;9.03;;;13.80;99.90;;;;;;5000633;28;20207;-53
2023/10/06 01:01:29;;;;;;;9.87;8.77;;;13.90;99.90;;;;;;5000958;28;20203;-53
2023/10/06 01:04:00;;;;;;;12.57;8.73;;;14.00;99.90;;;;;;4991558;28;20216;-53
2023/10/06 01:06:33;;;;;;;11.97;8.93;;;14.00;99.90;;;;;;4997676;28;20246;-53
2023/10/06 01:09:07;;;;;;;10.47;9.37;;;13.80;99.90;;;;;;4994850;28;20196;-52
2023/10/06 01:11:43;;;;;;;12.30;9.57;;;13.80;99.90;;;;;;4996812;28;20195;-53
2023/10/06 01:14:08;;;;;;;9.40;8.40;;;13.90;99.90;;;;;;4998819;28;20202;-52
2023/10/06 01:16:37;;;;;;;10.07;9.07;;;14.10;99.90;;;;;;4998076;28;20211;-53
2023/10/06 01:21:53;;;;;;;12.33;9.37;;;14.00;99.90;;;;;;4994094;28;20214;-53
2023/10/06 01:24:25;;;;;;;12.80;10.43;;;14.00;99.90;;;;;;4992690;28;20215;-53
2023/10/06 01:26:53;;;;;;;11.57;10.00;;;14.10;99.90;;;;;;4992884;28;20201;-53
2023/10/06 01:29:22;;;;;;;12.77;10.73;;;13.80;99.90;;;;;;4992751;28;20242;-53
2023/10/06 01:31:50;;;;;;;14.87;11.90;;;13.90;99.90;;;;;;4996682;28;21123;-53
2023/10/06 01:34:15;;;;;;;18.80;12.30;;;13.80;99.90;;;;;;4994799;28;20203;-52
2023/10/06 01:36:45;;;;;;;17.23;12.90;;;13.80;99.90;;;;;;4993823;28;20195;-53
2023/10/06 01:39:17;;;;;;;13.23;11.77;;;13.90;99.90;;;;;;4992546;28;20652;-53
2023/10/06 01:41:46;;;;;;;17.57;13.07;;;13.90;99.90;;;;;;4993180;28;20192;-61
2023/10/06 01:44:13;;;;;;;15.33;13.83;;;14.00;99.90;;;;;;4994960;28;20772;-59
2023/10/06 01:46:41;;;;;;;17.63;12.63;;;13.90;99.90;;;;;;4995241;28;20196;-56
2023/10/06 01:49:14;;;;;;;16.43;13.03;;;13.90;99.90;;;;;;4999943;28;21014;-56
2023/10/06 01:51:40;;;;;;;17.53;13.00;;;14.00;99.90;;;;;;4992327;28;20227;-56
2023/10/06 01:54:07;;;;;;;15.30;12.43;;;14.00;99.90;;;;;;4989923;28;20755;-54
2023/10/06 01:56:34;;;;;;;14.37;12.90;;;13.70;99.90;;;;;;4994307;28;20208;-52
2023/10/06 01:59:01;;;;;;;14.80;11.33;;;13.60;99.90;;;;;;4992260;28;20200;-53
2023/10/06 02:01:27;;;;;;;14.97;12.07;;;13.60;99.90;;;;;;4999253;28;20196;-56
2023/10/06 02:03:52;;;;;;;18.83;12.53;;;13.70;99.90;;;;;;4997774;28;20227;-53
2023/10/06 02:06:18;;;;;;;14.20;11.93;;;13.90;99.90;;;;;;4994880;28;20275;-54
2023/10/06 02:08:49;;;;;;;16.10;12.13;;;14.00;99.90;;;;;;4992652;28;20567;-54
2023/10/06 02:11:15;;;;;;;13.80;12.03;;;14.00;99.90;;;;;;4996288;28;20204;-54
2023/10/06 02:13:40;;;;;;;13.27;11.60;;;14.00;99.90;;;;;;4994616;28;20900;-55
2023/10/06 02:16:06;;;;;;;12.50;10.80;;;14.10;99.90;;;;;;4992465;28;20274;-54
2023/10/06 02:18:39;;;;;;;13.57;11.90;;;14.10;99.90;;;;;;4992288;28;20199;-54
2023/10/06 02:21:11;;;;;;;13.00;10.67;;;14.00;99.90;;;;;;4992435;28;20224;-54
2023/10/06 02:23:38;;;;;;;15.63;13.10;;;14.20;99.90;;;;;;4992310;28;20223;-53
2023/10/06 02:26:09;;;;;;;16.23;10.90;;;14.30;99.90;;;;;;4990927;28;20192;-53
2023/10/06 02:28:40;;;;;;;14.00;10.30;;;14.30;99.90;;;;;;4993537;28;20690;-55
2023/10/06 02:31:06;;;;;;;12.27;9.97;;;14.30;99.90;;;;;;4997623;28;20703;-53
2023/10/06 02:33:36;;;;;;;13.70;11.60;;;14.30;99.90;;;;;;4996084;28;20223;-54
2023/10/06 02:36:13;;;;;;;13.87;12.47;;;14.20;99.90;;;;;;5000280;28;20286;-56
2023/10/06 02:38:46;;;;;;;15.47;11.27;;;14.20;99.90;;;;;;4993079;28;20616;-55
2023/10/06 02:41:11;;;;;;;12.60;11.03;;;14.20;99.90;;;;;;4994979;28;21108;-53
2023/10/06 02:43:40;;;;;;;13.37;11.37;;;14.20;99.90;;;;;;4994795;28;20223;-54
2023/10/06 02:46:08;;;;;;;16.73;12.93;;;14.20;99.90;;;;;;4993302;28;20687;-63
2023/10/06 02:48:34;;;;;;;16.60;13.73;;;14.20;99.90;;;;;;4992370;28;20196;-61
2023/10/06 02:51:01;;;;;;;13.00;11.70;;;14.20;99.90;;;;;;4991937;28;20740;-60
2023/10/06 02:53:29;;;;;;;18.77;12.97;;;14.40;99.90;;;;;;4998496;28;20188;-60
2023/10/06 02:56:06;;;;;;;17.00;13.90;;;14.30;99.90;;;;;;4996758;28;20215;-60
2023/10/06 02:58:33;;;;;;;13.47;12.07;;;14.30;99.90;;;;;;4994056;28;20270;-60
2023/10/06 03:00:59;;;;;;;16.10;13.90;;;14.30;99.90;;;;;;4995458;28;20295;-61
2023/10/06 03:03:29;;;;;;;15.03;13.30;;;14.40;99.90;;;;;;4995532;28;20373;-60
2023/10/06 03:05:55;;;;;;;16.77;13.57;;;14.50;99.90;;;;;;4992795;28;20274;-57
2023/10/06 03:08:24;;;;;;;12.37;11.17;;;14.50;99.90;;;;;;4992564;28;20790;-57
2023/10/06 03:10:49;;;;;;;16.63;14.13;;;14.50;99.90;;;;;;4993850;28;20200;-56
2023/10/06 03:13:33;;;;;;;18.90;14.90;;;14.60;99.90;;;;;;4996124;28;20200;-56
2023/10/06 03:15:59;;;;;;;15.43;13.10;;;14.70;99.90;;;;;;4994852;28;20698;-57
2023/10/06 03:18:26;;;;;;;18.93;14.47;;;14.60;99.90;;;;;;4996986;28;20204;-57
2023/10/06 03:20:59;;;;;;;17.03;15.33;;;14.60;99.90;;;;;;4999402;28;20857;-56
2023/10/06 03:23:36;;;;;;;17.00;14.43;;;14.60;99.90;;;;;;4999203;28;20398;-57
2023/10/06 03:26:11;;;;;;;18.50;15.87;;;14.60;99.90;;;;;;4992336;28;20658;-57
2023/10/06 03:28:37;;;;;;;18.17;16.37;;;14.60;99.90;;;;;;4992257;28;20204;-55
2023/10/06 03:33:44;;;;;;;16.30;14.53;;;14.60;99.90;;;;;;4993228;28;20799;-54
2023/10/06 03:36:36;;;;;;;17.43;14.57;;;14.60;99.90;;;;;;4994837;28;20974;-53
2023/10/06 03:39:07;;;;;;;18.10;15.93;;;14.70;99.90;;;;;;4988157;28;20193;-56
2023/10/06 03:41:36;;;;;;;19.07;14.93;;;14.60;99.90;;;;;;4994172;28;20762;-56
2023/10/06 03:44:04;;;;;;;17.90;15.70;;;14.70;99.90;;;;;;4990278;28;20306;-53
2023/10/06 03:46:36;;;;;;;17.30;15.53;;;14.60;99.90;;;;;;4996800;28;20945;-53
2023/10/06 03:49:04;;;;;;;17.87;15.97;;;14.60;99.90;;;;;;4993228;28;20362;-55
2023/10/06 03:51:33;;;;;;;18.50;16.00;;;14.60;99.90;;;;;;4994371;28;20219;-54
2023/10/06 03:53:59;;;;;;;18.00;16.20;;;14.60;99.90;;;;;;4994623;28;20570;-53
2023/10/06 03:56:25;;;;;;;19.07;16.53;;;14.60;99.90;;;;;;4994719;28;20197;-53
2023/10/06 03:58:50;;;;;;;20.60;16.40;;;14.40;99.90;;;;;;4999301;28;20286;-59
2023/10/06 04:01:19;;;;;;;22.10;16.43;;;14.40;99.90;;;;;;4998364;28;20231;-54
2023/10/06 04:03:45;;;;;;;17.80;15.87;;;14.40;99.90;;;;;;4994311;28;20242;-54
2023/10/06 04:06:15;;;;;;;21.40;18.90;;;14.40;99.90;;;;;;4994497;28;20574;-57
2023/10/06 04:08:44;;;;;;;19.33;17.43;;;14.50;99.90;;;;;;5001011;28;20192;-54
2023/10/06 04:11:13;;;;;;;21.03;17.13;;;14.50;99.90;;;;;;5001293;28;20222;-54
2023/10/06 04:13:39;;;;;;;21.07;17.13;;;14.50;99.90;;;;;;4989401;28;20215;-53
2023/10/06 04:16:04;;;;;;;21.60;18.33;;;14.50;99.90;;;;;;5001304;28;20188;-53
2023/10/06 04:18:32;;;;;;;25.37;18.40;;;14.50;99.90;;;;;;4996165;28;20198;-51
2023/10/06 04:20:58;;;;;;;20.90;16.80;;;14.50;99.90;;;;;;4997518;28;20254;-54
2023/10/06 04:23:24;;;;;;;21.40;18.37;;;14.50;99.90;;;;;;4993983;28;20323;-54
2023/10/06 04:25:54;;;;;;;25.00;18.10;;;14.50;99.90;;;;;;4993778;28;20208;-54
2023/10/06 04:28:22;;;;;;;18.97;17.17;;;14.60;99.90;;;;;;4994159;28;20204;-51
2023/10/06 04:30:49;;;;;;;19.23;17.33;;;14.50;99.90;;;;;;4995081;28;20222;-51
2023/10/06 04:33:15;;;;;;;20.93;18.57;;;14.50;99.90;;;;;;4998563;28;20200;-52
2023/10/06 04:38:47;;;;;;;21.17;17.03;;;14.50;99.90;;;;;;4969484;28;20207;-52
2023/10/06 04:41:14;;;;;;;21.73;18.07;;;14.50;99.90;;;;;;4986733;28;20219;-52
2023/10/06 04:43:44;;;;;;;20.83;18.77;;;14.60;99.90;;;;;;4990772;28;20212;-53
2023/10/06 04:46:10;;;;;;;21.77;17.87;;;14.60;99.90;;;;;;4994214;28;20625;-55
2023/10/06 04:48:36;;;;;;;24.57;17.27;;;14.60;99.90;;;;;;4993519;28;21032;-53
2023/10/06 04:51:09;;;;;;;23.23;17.27;;;14.60;99.90;;;;;;4993339;28;20342;-52
2023/10/06 04:53:36;;;;;;;20.87;17.80;;;14.50;99.90;;;;;;4991907;28;20200;-52
2023/10/06 04:56:03;;;;;;;23.07;17.87;;;14.50;99.90;;;;;;4995437;28;20207;-52
2023/10/06 04:58:29;;;;;;;20.37;17.47;;;14.50;99.90;;;;;;4991163;28;20189;-52
2023/10/06 05:00:59;;;;;;;21.47;19.20;;;14.50;99.90;;;;;;4994920;28;20279;-52
2023/10/06 05:03:25;;;;;;;21.13;17.87;;;14.40;99.90;;;;;;4998730;28;20227;-52
2023/10/06 05:05:50;;;;;;;19.67;17.77;;;14.30;99.90;;;;;;4998914;28;20199;-52
2023/10/06 05:08:16;;;;;;;19.13;16.40;;;14.40;99.90;;;;;;5002252;28;20257;-52
2023/10/06 05:10:42;;;;;;;19.63;17.43;;;14.50;99.90;;;;;;4997691;28;20921;-52
2023/10/06 05:13:10;;;;;;;23.43;20.10;;;14.40;99.90;;;;;;4992979;28;20196;-52
2023/10/06 05:15:36;;;;;;;20.37;17.67;;;14.40;99.90;;;;;;4993015;28;20215;-54
2023/10/06 05:18:04;;;;;;;24.27;19.60;;;14.40;99.90;;;;;;5069739;23;20234;-53
2023/10/06 05:20:31;;;;;;;23.47;19.10;;;14.30;99.90;;;;;;5028086;28;20219;-52
2023/10/06 05:23:09;;;;;;;21.87;19.53;;;14.30;99.90;;;;;;5028977;28;20261;-53
2023/10/06 05:25:39;;;;;;;29.10;20.03;;;14.00;99.90;;;;;;5030596;28;20205;-53
2023/10/06 05:28:07;;;;;;;23.20;19.17;;;14.10;99.90;;;;;;5030442;28;20633;-52
2023/10/06 05:30:33;;;;;;;21.63;19.20;;;14.20;99.90;;;;;;5032005;28;20207;-53
2023/10/06 05:32:59;;;;;;;22.57;19.37;;;14.20;99.90;;;;;;5028688;28;20853;-53
2023/10/06 05:35:36;;;;;;;24.73;20.83;;;14.20;99.90;;;;;;5028005;28;20249;-53
2023/10/06 05:38:08;;;;;;;20.57;17.80;;;14.30;99.90;;;;;;5018360;28;20203;-53
2023/10/06 05:40:36;;;;;;;23.30;20.03;;;14.30;99.90;;;;;;5031773;28;20199;-53
2023/10/06 05:43:02;;;;;;;23.37;18.23;;;14.20;99.90;;;;;;5025780;28;20652;-52
2023/10/06 05:45:29;;;;;;;22.80;19.27;;;14.20;99.90;;;;;;5023566;28;20759;-53
2023/10/06 05:47:58;;;;;;;25.50;19.43;;;14.20;99.90;;;;;;5031732;28;20195;-53
2023/10/06 05:50:27;;;;;;;21.50;18.37;;;14.20;99.90;;;;;;5032358;28;20352;-53
2023/10/06 05:52:58;;;;;;;22.33;18.50;;;14.10;99.90;;;;;;5028582;28;20293;-53
2023/10/06 05:55:29;;;;;;;22.90;18.27;;;14.20;99.90;;;;;;5024161;28;20199;-53
2023/10/06 05:57:55;;;;;;;20.13;17.80;;;14.20;99.90;;;;;;5029409;28;20219;-52
2023/10/06 06:00:26;;;;;;;20.10;17.10;;;14.10;99.90;;;;;;5029492;28;20204;-52
2023/10/06 06:02:58;;;;;;;22.20;16.13;;;14.10;99.90;;;;;;5031063;28;20665;-52
2023/10/06 06:05:29;;;;;;;20.80;15.37;;;14.10;99.90;;;;;;5024274;28;20199;-59
2023/10/06 06:07:59;;;;;;;21.60;17.97;;;14.10;99.90;;;;;;5028913;28;20244;-57
2023/10/06 06:10:28;;;;;;;18.77;16.00;;;14.10;99.90;;;;;;5029879;28;20485;-57
2023/10/06 06:12:54;;;;;;;22.67;16.47;;;14.20;99.90;;;;;;5026228;28;20693;-58
2023/10/06 06:15:21;;;;;;;19.20;16.23;;;14.20;99.90;;;;;;5029217;28;20298;-58
2023/10/06 06:17:47;;;;;;;18.57;15.43;;;14.20;99.90;;;;;;5027119;28;20248;-56
2023/10/06 06:20:14;;;;;;;18.13;16.13;;;14.30;99.90;;;;;;5028909;28;20206;-55
2023/10/06 06:22:43;;;;;;;17.73;15.80;;;14.20;99.90;;;;;;5026984;28;20230;-55
2023/10/06 06:25:09;;;;;;;19.13;15.83;;;14.30;99.90;;;;;;5026732;28;20202;-55
2023/10/06 06:27:35;;;;;;;16.40;14.23;;;14.30;99.90;;;;;;5025280;28;20271;-55
2023/10/06 06:30:00;;;;;;;17.47;15.50;;;14.30;99.90;;;;;;5031831;28;20252;-59
2023/10/06 06:32:25;;;;;;;17.47;14.03;;;14.30;99.90;;;;;;5031560;28;20191;-56
2023/10/06 06:34:53;;;;;;;15.90;14.03;;;14.40;99.90;;;;;;5026018;28;20211;-56
2023/10/06 06:37:20;;;;;;;16.97;14.23;;;14.50;99.90;;;;;;5031391;28;20221;-54
2023/10/06 06:39:46;;;;;;;13.93;12.53;;;14.50;99.90;;;;;;5028642;28;20206;-55
2023/10/06 06:42:12;;;;;;;17.50;14.20;;;14.40;99.90;;;;;;5031374;28;20203;-56
2023/10/06 06:44:37;;;;;;;13.47;12.13;;;14.50;99.90;;;;;;5018638;28;20207;-56
2023/10/06 06:47:03;;;;;;;14.53;13.03;;;14.50;99.90;;;;;;5037414;28;20195;-56
2023/10/06 06:49:29;;;;;;;15.27;13.67;;;14.60;99.90;;;;;;5031023;28;20203;-56
2023/10/06 06:51:58;;;;;;;14.07;12.53;;;14.70;99.90;;;;;;5032263;28;20216;-56
2023/10/06 06:54:24;;;;;;;15.60;13.27;;;14.60;99.90;;;;;;5030328;28;20241;-56
2023/10/06 06:56:50;;;;;;;14.53;13.03;;;14.70;99.90;;;;;;5030821;28;20213;-56
2023/10/06 06:59:17;;;;;;;18.17;13.83;;;14.70;99.90;;;;;;5028136;28;20855;-57
2023/10/06 07:01:42;;;;;;;18.97;13.23;;;14.70;99.90;;;;;;5035034;28;20203;-56
2023/10/06 07:04:08;;;;;;;20.87;15.10;;;14.70;99.90;;;;;;5033040;28;20582;-56
2023/10/06 07:06:34;;;;;;;16.77;13.80;;;14.70;99.90;;;;;;5030607;28;20203;-56
2023/10/06 07:08:59;;;;;;;17.60;14.17;;;14.70;99.90;;;;;;5033639;28;20208;-56
2023/10/06 07:11:26;;;;;;;15.93;14.40;;;14.70;99.90;;;;;;5034983;28;20203;-56
2023/10/06 07:13:53;;;;;;;19.47;13.63;;;14.70;99.90;;;;;;5032985;28;20210;-56
2023/10/06 07:16:21;;;;;;;16.03;14.37;;;14.60;99.90;;;;;;5029928;28;20192;-56
2023/10/06 07:18:47;;;;;;;18.10;14.33;;;14.70;99.90;;;;;;5028324;28;20238;-56
2023/10/06 07:21:13;;;;;;;20.60;14.07;;;14.70;99.90;;;;;;5025514;28;20215;-56
2023/10/06 07:23:38;;;;;;;16.07;12.93;;;14.80;99.90;;;;;;5032155;28;20303;-56
2023/10/06 07:26:11;;;;;;;15.10;13.27;;;14.90;99.90;;;;;;5026364;28;20274;-56
2023/10/06 07:28:40;;;;;;;16.40;14.67;;;14.80;99.90;;;;;;5032003;28;20681;-55
2023/10/06 07:31:12;;;;;;;16.60;14.37;;;14.80;99.90;;;;;;5028635;28;20655;-55
2023/10/06 07:33:39;;;;;;;15.93;12.73;;;14.90;99.90;;;;;;5034414;28;20203;-56
2023/10/06 07:36:17;;;;;;;14.60;13.10;;;14.90;99.90;;;;;;5031556;28;20230;-63
2023/10/06 07:38:43;;;;;;;16.57;13.57;;;14.90;99.90;;;;;;5030151;28;20225;-64
2023/10/06 07:41:10;;;;;;;14.27;12.77;;;15.00;99.90;;;;;;5027950;28;20210;-58
2023/10/06 07:43:35;;;;;;;16.63;14.47;;;15.00;99.90;;;;;;5031383;28;20217;-58
2023/10/06 07:46:07;;;;;;;14.23;12.77;;;15.10;99.90;;;;;;5024337;28;20284;-58
2023/10/06 07:48:36;;;;;;;15.07;11.97;;;15.10;99.90;;;;;;5033771;28;20284;-59
2023/10/06 07:51:08;;;;;;;16.40;12.57;;;15.10;99.90;;;;;;5026657;28;20233;-58
2023/10/06 07:53:38;;;;;;;12.33;11.03;;;15.20;99.90;;;;;;5028729;28;20196;-58
2023/10/06 07:56:08;;;;;;;16.83;10.87;;;15.10;99.90;;;;;;5031706;28;20294;-58
2023/10/06 07:58:37;;;;;;;16.03;11.57;;;15.20;99.90;;;;;;5032517;28;20211;-59
2023/10/06 08:01:07;;;;;;;12.60;10.50;;;15.20;99.90;;;;;;5026547;28;20237;-57
2023/10/06 08:03:34;;;;;;;15.60;10.83;;;15.30;99.90;;;;;;5030404;28;20277;-55
2023/10/06 08:06:01;;;;;;;12.70;10.80;;;15.40;99.90;;;;;;5030229;28;20273;-57
2023/10/06 08:08:28;;;;;;;18.93;9.87;;;15.40;99.90;;;;;;5029842;28;20226;-59
2023/10/06 08:10:54;;;;;;;13.43;10.87;;;15.50;99.90;;;;;;5028236;28;20211;-56
2023/10/06 08:13:20;;;;;;;11.57;8.33;;;15.50;99.90;;;;;;5026471;28;20214;-55
2023/10/06 08:15:46;;;;;;;12.53;9.80;;;15.60;99.90;;;;;;5026586;28;20270;-59
2023/10/06 08:18:12;;;;;;;16.20;10.40;;;15.70;99.90;;;;;;5025592;28;20253;-55
2023/10/06 08:20:40;;;;;;;10.43;8.60;;;15.70;99.90;;;;;;5028152;28;20272;-60
2023/10/06 08:23:07;;;;;;;14.20;10.53;;;15.70;99.90;;;;;;5029326;28;20203;-65
2023/10/06 08:25:33;;;;;;;12.20;9.23;;;15.70;99.90;;;;;;5032922;28;20776;-63
2023/10/06 08:27:59;;;;;;;11.93;9.27;;;15.70;99.90;;;;;;5029048;28;20230;-64
2023/10/06 08:30:26;;;;;;;11.67;8.67;;;15.80;99.90;;;;;;5029275;28;20199;-64
2023/10/06 08:32:54;;;;;;;12.83;8.57;;;15.70;99.90;;;;;;5032741;28;20253;-61
2023/10/06 08:35:21;;;;;;;12.83;8.93;;;15.80;99.90;;;;;;5023093;28;20257;-59
2023/10/06 08:37:50;;;;;;;9.97;9.07;;;15.90;99.90;;;;;;5026325;28;21125;-57
2023/10/06 08:40:19;;;;;;;15.83;8.23;;;15.90;99.90;;;;;;5026897;28;20256;-57
2023/10/06 08:42:48;;;;;;;8.47;7.50;;;15.90;99.90;;;;;;5028457;28;20211;-58
2023/10/06 08:45:25;;;;;;;12.23;8.37;;;15.90;99.90;;;;;;5027962;28;20713;-58
2023/10/06 08:47:53;;;;;;;12.03;7.83;;;15.90;99.90;;;;;;5029033;28;20199;-58
2023/10/06 08:50:22;;;;;;;10.33;7.47;;;15.90;99.90;;;;;;5026204;28;20669;-69
2023/10/06 08:52:50;;;;;;;8.83;7.73;;;15.90;99.90;;;;;;5026555;28;20740;-58
2023/10/06 08:55:17;;;;;;;10.63;7.27;;;16.00;99.90;;;;;;5021407;28;20227;-58
2023/10/06 08:57:46;;;;;;;12.00;8.13;;;16.10;99.90;;;;;;5026065;28;20207;-58
2023/10/06 09:00:16;;;;;;;8.27;7.43;;;16.20;99.90;;;;;;5032005;28;20255;-58
2023/10/06 09:02:43;;;;;;;10.43;8.10;;;16.10;99.90;;;;;;5029171;28;20207;-57
2023/10/06 09:05:10;;;;;;;7.53;6.83;;;16.10;99.90;;;;;;5029457;28;20191;-58
2023/10/06 09:10:17;;;;;;;9.27;6.93;;;16.10;99.90;;;;;;5033928;28;20219;-58
2023/10/06 09:12:43;;;;;;;10.13;6.97;;;16.20;99.90;;;;;;5033818;28;20260;-58
2023/10/06 09:15:15;;;;;;;9.73;7.07;;;16.20;99.90;;;;;;5040184;28;20210;-58
2023/10/06 09:17:40;;;;;;;9.60;6.17;;;16.40;99.90;;;;;;5031198;28;20210;-58
2023/10/06 09:20:07;;;;;;;10.53;5.80;;;16.40;99.90;;;;;;5036310;28;20203;-58
2023/10/06 09:22:48;;;;;;;7.07;5.27;;;16.40;99.90;;;;;;5038256;28;20923;-58
2023/10/06 09:25:14;;;;;;;11.47;6.03;;;16.50;99.90;;;;;;5033185;28;20217;-58
2023/10/06 09:27:41;;;;;;;7.10;5.40;;;16.40;99.90;;;;;;5034753;28;20206;-58
2023/10/06 09:30:07;;;;;;;8.57;6.03;;;16.30;99.90;;;;;;5038435;28;20201;-58
2023/10/06 09:32:34;;;;;;;11.30;5.53;;;16.50;99.90;;;;;;5034739;28;20653;-58
2023/10/06 09:35:17;;;;;;;12.37;5.10;;;16.70;99.90;;;;;;5032211;28;20284;-58
2023/10/06 09:37:42;;;;;;;6.17;4.83;;;16.90;99.90;;;;;;5037974;28;20202;-58
2023/10/06 09:40:14;;;;;;;6.80;4.63;;;16.80;99.90;;;;;;5040829;28;20218;-58
2023/10/06 09:42:46;;;;;;;8.50;4.70;;;16.60;99.90;;;;;;5036767;28;20214;-58
2023/10/06 09:45:15;;;;;;;9.60;4.70;;;16.60;99.90;;;;;;5030542;28;20233;-58
2023/10/06 09:47:51;;;;;;;4.93;3.90;;;16.60;99.90;;;;;;5037829;28;20277;-58
2023/10/06 09:50:20;;;;;;;8.90;5.13;;;16.70;99.90;;;;;;5033866;28;20202;-58
2023/10/06 09:52:48;;;;;;;4.53;3.83;;;16.80;99.90;;;;;;5033416;28;20669;-59
2023/10/06 09:55:19;;;;;;;5.83;3.93;;;16.80;99.90;;;;;;5038789;28;20202;-59
2023/10/06 09:57:47;;;;;;;3.80;3.50;;;16.80;99.90;;;;;;5040257;28;20700;-58
2023/10/06 10:00:17;;;;;;;4.77;3.57;;;17.00;99.90;;;;;;5032511;28;20202;-58
2023/10/06 10:02:48;;;;;;;7.03;3.90;;;17.00;99.90;;;;;;5033474;28;20215;-58
2023/10/06 10:05:18;;;;;;;4.27;3.10;;;16.90;99.90;;;;;;5034024;28;20209;-58
2023/10/06 10:07:45;;;;;;;5.87;2.93;;;16.90;99.90;;;;;;5030061;28;20205;-59
2023/10/06 10:10:11;;;;;;;2.70;2.40;;;16.90;99.90;;;;;;5032780;28;20587;-58
2023/10/06 10:12:56;;;;;;;9.80;3.53;;;16.90;99.90;;;;;;5032425;28;20226;-58
2023/10/06 10:15:38;;;;;;;4.37;2.90;;;16.90;99.90;;;;;;5029211;28;20203;-59
2023/10/06 10:18:32;;;;;;;8.13;3.43;;;17.00;99.90;;;;;;5036891;28;20887;-59
2023/10/06 10:20:59;;;;;;;4.20;2.90;;;17.00;99.90;;;;;;5035700;28;20201;-59
2023/10/06 10:23:31;;;;;;;4.47;3.00;;;16.80;99.90;;;;;;5042915;28;20264;-58
2023/10/06 10:26:20;;;;;;;4.93;3.40;;;16.90;99.90;;;;;;5038384;28;20206;-58
2023/10/06 10:29:12;;;;;;;3.80;2.67;;;16.90;99.90;;;;;;5036034;28;20206;-58
2023/10/06 10:31:50;;;;;;;3.03;2.50;;;17.10;99.90;;;;;;5037923;28;20202;-58
2023/10/06 10:34:20;;;;;;;3.57;2.63;;;17.00;99.90;;;;;;5039678;28;20206;-58
2023/10/06 10:36:48;;;;;;;4.33;2.67;;;17.10;99.90;;;;;;5043752;28;20635;-58
2023/10/06 10:39:17;;;;;;;3.73;2.50;;;17.00;99.90;;;;;;5037854;28;20187;-58
2023/10/06 10:41:45;;;;;;;4.33;2.60;;;17.10;99.90;;;;;;5039116;28;20827;-58
2023/10/06 10:44:12;;;;;;;4.73;3.07;;;17.20;99.90;;;;;;5035303;28;20224;-58
2023/10/06 10:46:44;;;;;;;6.93;2.80;;;17.30;99.90;;;;;;5039493;28;20207;-58
2023/10/06 10:49:11;;;;;;;4.60;2.97;;;17.30;99.90;;;;;;5035636;28;20199;-58
2023/10/06 10:51:57;;;;;;;5.20;2.83;;;17.30;99.90;;;;;;5039730;28;20215;-58
2023/10/06 10:54:27;;;;;;;4.10;2.50;;;17.30;99.90;;;;;;5052591;28;20198;-59
2023/10/06 10:57:01;;;;;;;4.40;2.50;;;17.40;99.90;;;;;;5037172;28;20894;-59
2023/10/06 11:00:00;;;;;;;3.20;2.90;;;17.60;99.90;;;;;;5037235;28;20198;-58
2023/10/06 11:03:01;;;;;;;4.03;2.37;;;17.60;99.90;;;;;;5034441;28;20203;-58
2023/10/06 11:05:27;;;;;;;5.63;2.80;;;17.60;99.90;;;;;;5051992;23;20248;-57
2023/10/06 11:08:01;;;;;;;5.37;2.47;;;17.70;99.90;;;;;;4997183;28;20208;-58
2023/10/06 11:10:27;;;;;;;4.30;2.40;;;17.70;99.90;;;;;;5016833;28;20207;-58
2023/10/06 11:13:15;;;;;;;5.77;2.83;;;17.70;99.90;;;;;;5013012;28;20199;-65
2023/10/06 11:15:42;;;;;;;6.97;2.43;;;17.60;99.90;;;;;;5011922;28;20207;-55
2023/10/06 11:18:09;;;;;;;4.27;2.53;;;17.60;99.90;;;;;;5013176;28;20196;-56
2023/10/06 11:20:36;;;;;;;7.20;3.00;;;17.60;99.90;;;;;;5013513;28;20231;-55
2023/10/06 11:23:03;;;;;;;5.10;2.77;;;17.70;99.90;;;;;;5013985;28;20211;-55
2023/10/06 11:25:29;;;;;;;4.30;2.27;;;17.80;99.90;;;;;;5015019;28;20303;-55
2023/10/06 11:28:04;;;;;;;3.47;2.30;;;17.80;99.90;;;;;;5012632;28;20211;-56
2023/10/06 11:30:32;;;;;;;7.53;2.57;;;17.90;99.90;;;;;;5012969;28;20190;-57
2023/10/06 11:33:00;;;;;;;5.37;2.43;;;17.90;99.90;;;;;;5013312;28;20199;-64
2023/10/06 11:35:26;;;;;;;5.90;2.30;;;17.90;99.90;;;;;;5017784;28;20572;-56
2023/10/06 11:37:52;;;;;;;6.77;2.50;;;17.90;99.90;;;;;;5014309;28;20543;-56
2023/10/06 11:40:18;;;;;;;5.37;2.33;;;18.00;99.90;;;;;;4993808;28;20288;-65
2023/10/06 11:42:43;;;;;;;4.10;2.60;;;18.10;99.90;;;;;;5014506;28;20274;-56
2023/10/06 11:45:30;;;;;;;7.50;2.70;;;18.50;99.90;;;;;;5009172;28;20685;-57
2023/10/06 11:47:56;;;;;;;4.53;2.70;;;18.60;99.90;;;;;;5018914;28;20255;-57
2023/10/06 11:50:26;;;;;;;3.47;2.50;;;18.80;99.90;;;;;;5014981;28;20929;-58
2023/10/06 11:52:52;;;;;;;4.33;2.73;;;19.00;99.90;;;;;;5013577;28;20701;-56
2023/10/06 11:55:26;;;;;;;5.97;2.53;;;18.90;99.90;;;;;;5021237;28;20207;-67
2023/10/06 11:57:52;;;;;;;3.83;2.50;;;19.10;99.90;;;;;;4997519;28;20571;-64
2023/10/06 12:00:19;;;;;;;3.67;2.10;;;19.00;99.90;;;;;;5015339;28;20203;-59
2023/10/06 12:02:53;;;;;;;4.53;2.77;;;18.90;99.90;;;;;;5013639;28;20240;-58
2023/10/06 12:05:22;;;;;;;4.00;2.40;;;18.90;99.90;;;;;;5012911;28;20255;-59
2023/10/06 12:07:50;;;;;;;6.07;2.90;;;18.80;99.90;;;;;;5011347;28;20219;-59
2023/10/06 12:10:18;;;;;;;6.50;2.43;;;18.80;99.90;;;;;;5013528;28;20215;-57
2023/10/06 12:12:50;;;;;;;6.27;3.53;;;18.90;99.90;;;;;;5013356;28;20350;-57
2023/10/06 12:15:15;;;;;;;5.60;2.50;;;18.90;99.90;;;;;;5017483;28;20201;-57
2023/10/06 12:17:42;;;;;;;3.33;2.00;;;18.80;99.90;;;;;;5013638;28;20220;-59
2023/10/06 12:20:15;;;;;;;3.67;2.43;;;19.00;99.90;;;;;;5011928;28;20848;-60
2023/10/06 12:22:42;;;;;;;5.50;2.73;;;19.10;99.90;;;;;;5014945;28;20229;-59
2023/10/06 12:25:11;;;;;;;3.37;2.63;;;18.90;99.90;;;;;;4993007;28;20193;-58
2023/10/06 12:27:37;;;;;;;3.37;1.97;;;18.80;99.90;;;;;;5017194;28;20467;-58
2023/10/06 12:30:06;;;;;;;5.30;2.57;;;18.70;99.90;;;;;;5019145;28;20687;-59
2023/10/06 12:32:33;;;;;;;3.17;2.00;;;18.60;99.90;;;;;;5000310;28;20679;-59
2023/10/06 12:35:01;;;;;;;4.93;1.80;;;18.50;99.90;;;;;;5002737;28;20729;-67
2023/10/06 12:44:55;;;;;;;2.27;2.00;;;18.40;99.90;;;;;;5004753;28;20702;-59
2023/10/06 12:47:21;;;;;;;2.73;2.07;;;18.40;99.90;;;;;;4990968;28;20760;-54
2023/10/06 12:49:47;;;;;;;3.93;2.43;;;18.50;99.90;;;;;;5011737;28;20203;-57
2023/10/06 12:52:13;;;;;;;5.30;2.20;;;18.50;99.90;;;;;;5006759;28;20208;-55
2023/10/06 12:54:39;;;;;;;5.53;1.97;;;18.50;99.90;;;;;;5025070;28;20217;-58
2023/10/06 12:57:05;;;;;;;3.93;2.20;;;18.50;99.90;;;;;;5024182;28;20195;-58
2023/10/06 12:59:30;;;;;;;6.67;2.70;;;18.50;99.90;;;;;;5007134;28;20198;-58
2023/10/06 13:01:57;;;;;;;7.87;3.43;;;18.50;99.90;;;;;;5022496;28;20282;-59
2023/10/06 13:04:23;;;;;;;3.30;2.23;;;18.40;99.90;;;;;;5020243;28;20225;-60